Time;durP1;ratioP1;P1;durP2;ratioP2;P2;SDS_P1;SDS_P2;PMS_P1;PMS_P2;Temp;Humidity;BMP_temperature;BMP_pressure;BME280_temperature;BME280_humidity;BME280_pressure;Samples;Min_cycle;Max_cycle;Signal;HPM_P1;HPM_P2
2023/06/13 00:00:35;;;;;;;22.77;21.00;;;15.20;81.50;;;;;;4972529;28;20184;-67
2023/06/13 00:03:02;;;;;;;19.63;18.00;;;15.30;81.00;;;;;;4972766;28;20525;-67
2023/06/13 00:05:31;;;;;;;17.60;15.70;;;15.30;80.40;;;;;;4969537;28;20226;-67
2023/06/13 00:07:58;;;;;;;15.83;14.37;;;15.30;79.90;;;;;;4972179;28;20210;-69
2023/06/13 00:10:25;;;;;;;16.07;14.33;;;15.40;79.90;;;;;;4971372;28;20664;-68
2023/06/13 00:12:53;;;;;;;13.87;12.47;;;15.40;79.80;;;;;;4972786;28;20219;-71
2023/06/13 00:15:20;;;;;;;15.03;12.53;;;15.50;79.80;;;;;;4972980;28;20268;-69
2023/06/13 00:17:48;;;;;;;13.47;12.07;;;15.70;79.70;;;;;;4972895;28;20194;-67
2023/06/13 00:20:15;;;;;;;11.97;10.47;;;15.70;79.40;;;;;;4972806;28;20200;-67
2023/06/13 00:22:45;;;;;;;10.37;9.20;;;15.80;79.20;;;;;;4972861;28;20219;-67
2023/06/13 00:25:12;;;;;;;9.17;7.80;;;16.00;78.10;;;;;;4972819;28;20195;-67
2023/06/13 00:27:39;;;;;;;7.63;6.50;;;16.20;77.30;;;;;;4969333;28;20624;-71
2023/06/13 00:30:07;;;;;;;10.30;5.73;;;16.40;76.70;;;;;;4972593;28;20199;-70
2023/06/13 00:32:34;;;;;;;6.90;4.70;;;16.70;75.40;;;;;;4972824;28;20230;-69
2023/06/13 00:35:02;;;;;;;6.97;4.10;;;16.90;75.00;;;;;;4972756;28;20195;-70
2023/06/13 00:37:34;;;;;;;7.60;3.70;;;17.10;73.10;;;;;;4972895;28;20272;-68
2023/06/13 00:40:02;;;;;;;6.37;2.70;;;17.20;72.60;;;;;;4972788;28;20200;-70
2023/06/13 00:42:31;;;;;;;7.37;2.67;;;17.40;71.40;;;;;;4971959;28;20197;-70
2023/06/13 00:45:21;;;;;;;4.03;2.63;;;17.40;71.00;;;;;;4972665;28;20193;-71
2023/06/13 00:47:57;;;;;;;3.13;2.20;;;17.40;70.30;;;;;;4972718;28;20191;-70
2023/06/13 00:50:31;;;;;;;3.67;2.20;;;17.60;70.00;;;;;;4969589;28;20200;-68
2023/06/13 00:53:09;;;;;;;4.13;2.03;;;17.80;69.30;;;;;;4971417;28;20316;-67
2023/06/13 00:55:37;;;;;;;2.73;1.93;;;17.90;69.50;;;;;;4971828;28;20672;-67
2023/06/13 00:58:06;;;;;;;3.33;1.60;;;17.90;68.60;;;;;;4971048;28;20186;-67
2023/06/13 01:00:35;;;;;;;4.07;1.80;;;17.80;68.20;;;;;;4972232;28;20262;-67
2023/06/13 01:03:06;;;;;;;1.60;1.50;;;17.80;67.90;;;;;;4971932;28;20186;-68
2023/06/13 01:05:38;;;;;;;4.53;1.50;;;17.90;67.70;;;;;;4972686;28;20190;-67
2023/06/13 01:08:10;;;;;;;2.50;1.43;;;17.80;67.60;;;;;;4971945;28;20550;-67
2023/06/13 01:10:42;;;;;;;2.07;1.30;;;18.00;67.10;;;;;;4970699;28;20215;-67
2023/06/13 01:13:27;;;;;;;2.73;1.47;;;18.30;66.20;;;;;;4972135;28;20226;-68
2023/06/13 01:16:33;;;;;;;1.30;1.20;;;18.30;66.00;;;;;;4970989;28;20641;-67
2023/06/13 01:19:08;;;;;;;3.87;1.40;;;18.40;65.80;;;;;;4968083;28;20570;-69
2023/06/13 01:21:37;;;;;;;2.50;1.30;;;18.50;65.70;;;;;;4971116;28;20586;-71
2023/06/13 01:24:24;;;;;;;2.73;1.20;;;18.50;65.80;;;;;;4974936;28;20194;-68
2023/06/13 01:26:57;;;;;;;4.97;1.30;;;18.60;65.00;;;;;;4974398;28;20260;-70
2023/06/13 01:29:24;;;;;;;3.10;1.20;;;18.40;65.10;;;;;;4972624;28;20317;-70
2023/06/13 01:31:55;;;;;;;3.33;1.40;;;18.40;65.90;;;;;;4975813;28;20191;-70
2023/06/13 01:34:24;;;;;;;2.03;1.20;;;18.30;65.40;;;;;;4974075;28;20237;-70
2023/06/13 01:36:52;;;;;;;3.20;1.60;;;18.40;65.70;;;;;;4975619;28;20337;-71
2023/06/13 01:39:20;;;;;;;1.27;1.10;;;18.40;65.60;;;;;;4972374;28;20194;-70
2023/06/13 01:41:47;;;;;;;2.87;1.20;;;18.40;65.60;;;;;;4975445;28;20179;-68
2023/06/13 01:44:19;;;;;;;3.73;1.47;;;18.30;65.00;;;;;;4971460;28;20185;-69
2023/06/13 01:47:05;;;;;;;1.80;1.20;;;18.20;65.30;;;;;;4974256;28;20660;-69
2023/06/13 01:50:03;;;;;;;1.47;1.10;;;18.10;65.90;;;;;;4957959;28;20326;-70
2023/06/13 01:52:40;;;;;;;2.13;1.40;;;18.10;65.70;;;;;;4962676;28;20247;-70
2023/06/13 01:55:16;;;;;;;1.23;1.13;;;18.30;65.60;;;;;;4975510;28;20198;-70
2023/06/13 01:57:55;;;;;;;2.33;1.13;;;18.30;64.50;;;;;;4971666;28;20654;-67
2023/06/13 02:00:23;;;;;;;4.70;1.30;;;18.30;65.50;;;;;;4971458;28;20197;-70
2023/06/13 02:02:51;;;;;;;4.13;1.43;;;18.50;64.90;;;;;;4974631;28;20202;-70
2023/06/13 02:05:20;;;;;;;3.60;1.13;;;18.70;63.90;;;;;;4975169;28;20194;-70
2023/06/13 02:07:47;;;;;;;2.47;1.00;;;18.80;63.00;;;;;;4971884;28;20249;-67
2023/06/13 02:10:14;;;;;;;3.13;0.97;;;18.80;63.00;;;;;;4972075;28;20178;-67
2023/06/13 02:12:41;;;;;;;1.90;1.27;;;18.80;63.30;;;;;;4974912;28;20218;-67
2023/06/13 02:15:10;;;;;;;2.60;1.00;;;18.90;62.60;;;;;;4975064;28;20190;-67
2023/06/13 02:17:38;;;;;;;2.40;1.17;;;19.00;62.10;;;;;;4973799;28;20193;-68
2023/06/13 02:20:06;;;;;;;1.67;1.00;;;19.00;62.10;;;;;;4974960;28;20202;-67
2023/06/13 02:22:34;;;;;;;1.00;0.90;;;18.80;62.60;;;;;;4974402;28;20186;-67
2023/06/13 02:25:04;;;;;;;1.23;0.97;;;19.10;61.80;;;;;;4974783;28;20186;-68
2023/06/13 02:27:31;;;;;;;1.00;0.90;;;19.20;61.00;;;;;;4974277;28;20245;-67
2023/06/13 02:29:58;;;;;;;2.40;1.00;;;19.40;59.70;;;;;;4973989;28;20182;-70
2023/06/13 02:32:28;;;;;;;2.67;0.90;;;19.60;59.30;;;;;;4974658;28;20215;-68
2023/06/13 02:34:55;;;;;;;1.23;0.70;;;19.70;58.60;;;;;;4971986;28;20198;-67
2023/06/13 02:37:23;;;;;;;3.13;0.80;;;19.90;57.80;;;;;;4973123;28;20186;-68
2023/06/13 02:39:50;;;;;;;1.37;0.80;;;19.90;57.40;;;;;;4974412;28;20696;-67
2023/06/13 02:42:18;;;;;;;1.70;0.80;;;19.90;57.20;;;;;;4974473;28;20178;-68
2023/06/13 02:44:45;;;;;;;1.83;1.10;;;20.00;57.60;;;;;;4974517;28;20186;-67
2023/06/13 02:47:12;;;;;;;2.90;0.90;;;20.20;57.20;;;;;;4974038;28;20190;-67
2023/06/13 02:49:40;;;;;;;1.57;0.90;;;20.30;55.60;;;;;;4971919;28;20210;-66
2023/06/13 02:52:07;;;;;;;0.87;0.87;;;20.30;56.00;;;;;;4973473;28;20701;-67
2023/06/13 02:54:34;;;;;;;1.67;0.80;;;20.30;56.20;;;;;;4973535;28;20251;-66
2023/06/13 02:57:02;;;;;;;0.80;0.80;;;20.30;56.10;;;;;;4972140;28;20668;-67
2023/06/13 02:59:29;;;;;;;1.97;1.00;;;20.30;56.10;;;;;;4967798;28;20190;-66
2023/06/13 03:01:57;;;;;;;1.20;1.00;;;20.20;56.00;;;;;;4970777;28;20257;-67
2023/06/13 03:04:28;;;;;;;0.60;0.60;;;20.20;56.40;;;;;;4973245;28;20303;-70
2023/06/13 03:06:56;;;;;;;1.27;0.90;;;20.30;56.20;;;;;;4972934;28;20217;-70
2023/06/13 03:09:23;;;;;;;0.97;0.73;;;20.40;56.20;;;;;;4972321;28;20249;-72
2023/06/13 03:11:50;;;;;;;2.43;0.80;;;20.40;55.00;;;;;;4973743;28;20187;-70
2023/06/13 03:14:18;;;;;;;1.80;0.97;;;20.40;54.80;;;;;;4973519;28;20313;-71
2023/06/13 03:16:46;;;;;;;1.47;0.80;;;20.50;54.40;;;;;;4974173;28;20183;-69
2023/06/13 03:19:13;;;;;;;1.00;0.77;;;20.60;53.90;;;;;;4973152;28;20229;-71
2023/06/13 03:21:42;;;;;;;1.17;0.80;;;20.60;54.80;;;;;;4974022;28;20183;-70
2023/06/13 03:24:10;;;;;;;2.87;1.10;;;20.80;54.40;;;;;;4973406;28;20219;-68
2023/06/13 03:26:38;;;;;;;2.53;1.13;;;20.60;54.40;;;;;;4971228;28;20191;-71
2023/06/13 03:29:07;;;;;;;4.10;1.00;;;20.60;54.10;;;;;;4968524;28;20741;-68
2023/06/13 03:31:34;;;;;;;1.70;1.00;;;20.80;54.10;;;;;;4973635;28;20281;-70
2023/06/13 03:34:02;;;;;;;1.27;0.73;;;21.30;53.20;;;;;;4972091;28;20583;-66
2023/06/13 03:36:29;;;;;;;2.30;0.80;;;21.50;51.30;;;;;;4972223;28;20286;-68
2023/06/13 03:38:56;;;;;;;2.13;1.00;;;21.60;51.90;;;;;;4972688;28;20217;-68
2023/06/13 03:41:25;;;;;;;1.00;0.80;;;21.60;51.40;;;;;;4969932;28;20514;-68
2023/06/13 03:43:52;;;;;;;1.13;0.80;;;21.90;50.80;;;;;;4972642;28;20265;-67
2023/06/13 03:46:19;;;;;;;2.23;0.90;;;21.90;49.70;;;;;;4969103;28;20186;-67
2023/06/13 03:48:49;;;;;;;0.80;0.80;;;21.80;50.40;;;;;;4970824;28;20182;-67
2023/06/13 03:51:17;;;;;;;0.80;0.80;;;22.20;50.00;;;;;;4969640;28;20187;-68
2023/06/13 03:53:44;;;;;;;2.73;1.07;;;22.60;49.10;;;;;;4972415;28;20222;-68
2023/06/13 03:56:12;;;;;;;1.83;0.90;;;22.30;49.10;;;;;;4970735;28;20671;-67
2023/06/13 03:58:40;;;;;;;7.73;0.80;;;22.10;49.40;;;;;;4966991;28;20186;-65
2023/06/13 04:01:08;;;;;;;1.37;0.80;;;21.50;50.90;;;;;;4968997;28;20551;-67
2023/06/13 04:03:39;;;;;;;3.77;0.90;;;21.90;49.90;;;;;;4955925;28;20261;-68
2023/06/13 04:06:09;;;;;;;0.90;0.77;;;21.80;50.80;;;;;;4971987;28;20238;-67
2023/06/13 04:08:37;;;;;;;1.20;1.00;;;21.30;51.80;;;;;;4973261;28;20193;-68
2023/06/13 04:11:10;;;;;;;1.30;0.80;;;21.50;51.00;;;;;;4971498;28;20190;-67
2023/06/13 04:13:43;;;;;;;1.53;0.90;;;21.90;50.00;;;;;;4969083;28;20337;-68
2023/06/13 04:16:10;;;;;;;1.57;0.70;;;22.10;48.80;;;;;;4955389;28;20193;-67
2023/06/13 04:18:39;;;;;;;0.83;0.73;;;22.40;49.10;;;;;;4972965;28;20186;-67
2023/06/13 04:21:06;;;;;;;3.30;1.00;;;22.80;47.50;;;;;;4970284;28;20186;-68
2023/06/13 04:23:34;;;;;;;1.33;0.83;;;22.80;47.80;;;;;;4972999;28;20191;-70
2023/06/13 04:26:05;;;;;;;2.80;0.70;;;22.90;47.40;;;;;;4967121;28;20596;-72
2023/06/13 04:28:35;;;;;;;1.93;0.80;;;22.80;47.70;;;;;;4970178;28;20266;-71
2023/06/13 04:31:03;;;;;;;2.20;1.17;;;23.00;47.20;;;;;;4972409;28;20182;-69
2023/06/13 04:33:31;;;;;;;1.03;0.70;;;23.00;47.70;;;;;;4969935;28;20249;-69
2023/06/13 04:36:03;;;;;;;1.77;0.70;;;23.10;46.50;;;;;;4972277;28;20181;-67
2023/06/13 04:38:34;;;;;;;0.73;0.70;;;23.20;46.90;;;;;;4967687;28;20217;-66
2023/06/13 04:41:02;;;;;;;1.83;0.77;;;23.30;46.70;;;;;;4970752;28;20549;-66
2023/06/13 04:43:33;;;;;;;0.93;0.60;;;23.70;45.70;;;;;;4963838;28;20606;-66
2023/06/13 04:46:03;;;;;;;1.60;0.80;;;23.60;45.70;;;;;;4972018;28;20602;-67
2023/06/13 04:48:35;;;;;;;0.87;0.70;;;23.30;45.70;;;;;;4965760;28;20233;-65
2023/06/13 04:51:09;;;;;;;0.60;0.60;;;23.30;45.90;;;;;;4970113;28;20188;-66
2023/06/13 04:53:38;;;;;;;1.47;0.80;;;23.30;46.30;;;;;;4972523;28;20317;-70
2023/06/13 04:56:06;;;;;;;1.10;0.80;;;23.80;45.00;;;;;;4975468;28;20191;-68
2023/06/13 04:58:33;;;;;;;1.27;0.63;;;24.00;44.50;;;;;;4975884;28;20210;-70
2023/06/13 05:01:02;;;;;;;1.47;0.60;;;23.20;45.90;;;;;;4973232;28;20182;-69
2023/06/13 05:03:29;;;;;;;6.83;0.93;;;23.10;46.70;;;;;;4968794;28;20281;-70
2023/06/13 05:05:57;;;;;;;1.60;0.90;;;23.20;46.00;;;;;;4973203;28;20183;-71
2023/06/13 05:08:24;;;;;;;1.40;0.67;;;23.20;46.80;;;;;;4974888;28;20183;-67
2023/06/13 05:10:51;;;;;;;0.93;0.70;;;23.10;46.50;;;;;;4971869;28;20189;-66
2023/06/13 05:13:19;;;;;;;1.00;0.70;;;23.20;46.20;;;;;;4973942;28;20214;-67
2023/06/13 05:15:46;;;;;;;0.90;0.73;;;23.20;46.20;;;;;;4973233;28;20187;-68
2023/06/13 05:18:14;;;;;;;1.00;0.90;;;23.00;46.40;;;;;;4974492;28;20556;-67
2023/06/13 05:20:43;;;;;;;1.30;0.70;;;22.90;46.90;;;;;;4973353;28;20182;-66
2023/06/13 05:23:13;;;;;;;1.57;0.80;;;23.00;47.10;;;;;;4973747;28;20209;-67
2023/06/13 05:25:42;;;;;;;4.60;0.80;;;23.30;46.50;;;;;;4972380;28;20198;-67
2023/06/13 05:28:09;;;;;;;2.83;0.70;;;22.70;47.20;;;;;;4973541;28;20826;-69
2023/06/13 05:30:38;;;;;;;1.17;0.87;;;22.50;47.50;;;;;;4971575;28;20202;-71
2023/06/13 05:33:06;;;;;;;1.57;0.77;;;22.70;47.20;;;;;;4975547;28;20797;-70
2023/06/13 05:35:33;;;;;;;1.10;0.70;;;22.80;47.30;;;;;;4975274;28;20195;-71
2023/06/13 05:38:02;;;;;;;1.60;0.87;;;22.80;47.00;;;;;;4974058;28;20286;-70
2023/06/13 05:40:29;;;;;;;1.10;0.70;;;22.80;46.90;;;;;;4971114;28;20701;-68
2023/06/13 05:42:57;;;;;;;3.03;0.90;;;23.00;46.80;;;;;;4971466;28;20269;-71
2023/06/13 05:45:24;;;;;;;1.73;0.87;;;23.30;46.00;;;;;;4972445;28;20269;-70
2023/06/13 05:47:51;;;;;;;1.07;0.80;;;23.00;47.20;;;;;;4972770;28;20661;-69
2023/06/13 05:50:19;;;;;;;2.63;0.93;;;22.90;47.10;;;;;;4974814;28;20186;-67
2023/06/13 05:52:46;;;;;;;2.57;1.10;;;22.30;48.40;;;;;;4973852;28;20316;-67
2023/06/13 05:55:13;;;;;;;1.53;0.70;;;22.70;47.90;;;;;;4974554;28;20249;-67
2023/06/13 05:57:42;;;;;;;0.83;0.73;;;22.30;48.60;;;;;;4973416;28;20209;-71
2023/06/13 06:00:14;;;;;;;4.23;0.90;;;22.40;48.90;;;;;;4974840;28;20195;-68
2023/06/13 06:02:46;;;;;;;1.30;0.80;;;22.80;48.60;;;;;;4972528;28;20194;-67
2023/06/13 06:05:14;;;;;;;0.87;0.63;;;22.60;48.30;;;;;;4953750;28;20197;-69
2023/06/13 06:07:45;;;;;;;2.80;0.80;;;21.80;50.10;;;;;;4971560;28;20207;-67
2023/06/13 06:10:14;;;;;;;2.03;0.90;;;21.40;51.20;;;;;;4972955;28;20201;-66
2023/06/13 06:12:42;;;;;;;1.77;0.90;;;21.00;52.40;;;;;;4972891;28;20229;-67
2023/06/13 06:15:09;;;;;;;2.60;1.00;;;20.50;53.70;;;;;;4973972;28;20202;-66
2023/06/13 06:17:36;;;;;;;1.93;1.00;;;20.30;54.10;;;;;;4973374;28;20186;-66
2023/06/13 06:20:06;;;;;;;2.73;0.93;;;20.00;54.50;;;;;;4973491;28;20194;-67
2023/06/13 06:22:35;;;;;;;2.83;0.93;;;20.00;55.30;;;;;;4972318;28;20178;-66
2023/06/13 06:25:02;;;;;;;1.23;1.00;;;19.80;55.80;;;;;;4973598;28;20189;-65
2023/06/13 06:27:30;;;;;;;2.03;1.00;;;19.70;56.00;;;;;;4972461;28;20290;-69
2023/06/13 06:29:57;;;;;;;2.43;1.23;;;19.50;55.80;;;;;;4973935;28;20229;-66
2023/06/13 06:32:24;;;;;;;3.80;1.37;;;19.40;56.20;;;;;;4973184;28;20664;-67
2023/06/13 06:34:53;;;;;;;1.23;1.13;;;19.20;56.60;;;;;;4972022;28;20558;-69
2023/06/13 06:37:21;;;;;;;4.53;1.10;;;19.10;56.90;;;;;;4973865;28;20198;-70
2023/06/13 06:39:48;;;;;;;1.20;0.70;;;19.00;57.00;;;;;;4970205;28;20654;-69
2023/06/13 06:42:15;;;;;;;1.37;1.07;;;19.00;57.30;;;;;;4971676;28;20226;-67
2023/06/13 06:44:43;;;;;;;2.03;1.23;;;18.80;57.70;;;;;;4971752;28;20198;-66
2023/06/13 06:47:10;;;;;;;4.17;1.40;;;18.80;58.30;;;;;;4973298;28;20688;-68
2023/06/13 06:49:37;;;;;;;3.37;1.20;;;18.70;58.80;;;;;;4971649;28;20596;-68
2023/06/13 06:52:05;;;;;;;4.23;1.20;;;18.60;59.50;;;;;;4972812;28;20349;-68
2023/06/13 06:54:32;;;;;;;1.83;1.50;;;18.40;60.00;;;;;;4972971;28;20723;-66
2023/06/13 06:57:00;;;;;;;3.30;1.50;;;18.30;60.40;;;;;;4973251;28;20179;-67
2023/06/13 06:59:27;;;;;;;4.70;1.40;;;18.30;60.80;;;;;;4973181;28;20656;-69
2023/06/13 07:01:54;;;;;;;2.60;1.33;;;18.20;61.10;;;;;;4973055;28;20174;-70
2023/06/13 07:04:24;;;;;;;2.50;1.20;;;18.10;61.60;;;;;;4973097;28;20194;-68
2023/06/13 07:06:52;;;;;;;1.90;1.23;;;18.00;61.90;;;;;;4971246;28;20669;-68
2023/06/13 07:09:20;;;;;;;3.40;1.60;;;18.00;62.00;;;;;;4971411;28;20229;-69
2023/06/13 07:11:47;;;;;;;4.07;1.30;;;17.90;62.20;;;;;;4973904;28;20686;-67
2023/06/13 07:14:14;;;;;;;2.37;1.50;;;17.80;62.40;;;;;;4972391;28;20638;-69
2023/06/13 07:16:42;;;;;;;9.23;1.77;;;17.80;62.70;;;;;;4972402;28;20584;-71
2023/06/13 07:19:11;;;;;;;2.80;1.20;;;17.80;63.10;;;;;;4972354;28;20278;-67
2023/06/13 07:21:39;;;;;;;8.53;1.80;;;17.70;63.60;;;;;;4973432;28;20229;-68
2023/06/13 07:24:06;;;;;;;4.73;1.43;;;17.60;64.20;;;;;;4972797;28;20193;-67
2023/06/13 07:26:33;;;;;;;3.73;1.30;;;17.50;65.00;;;;;;4970570;28;20187;-65
2023/06/13 07:29:01;;;;;;;3.87;1.73;;;17.50;65.10;;;;;;4973461;28;20207;-67
2023/06/13 07:31:28;;;;;;;5.23;1.80;;;17.50;65.50;;;;;;4970509;28;20617;-66
2023/06/13 07:33:55;;;;;;;3.90;1.50;;;17.40;65.70;;;;;;4971342;28;20225;-66
2023/06/13 07:36:23;;;;;;;2.23;1.20;;;17.30;65.80;;;;;;4973156;28;20261;-66
2023/06/13 07:38:52;;;;;;;3.30;1.70;;;17.30;66.10;;;;;;4972991;28;20625;-66
2023/06/13 07:41:20;;;;;;;3.07;1.30;;;17.30;66.40;;;;;;4976846;28;20186;-67
2023/06/13 07:43:49;;;;;;;2.03;1.30;;;17.20;66.40;;;;;;4966773;28;20193;-66
2023/06/13 07:46:17;;;;;;;2.73;1.33;;;17.20;66.90;;;;;;4971881;28;20189;-67
2023/06/13 07:48:45;;;;;;;4.10;1.60;;;17.10;67.20;;;;;;4972225;28;20225;-66
2023/06/13 07:51:13;;;;;;;4.37;1.50;;;17.00;67.60;;;;;;4972893;28;20187;-66
2023/06/13 07:53:40;;;;;;;3.90;1.53;;;17.00;67.90;;;;;;4972038;28;20228;-66
2023/06/13 07:56:08;;;;;;;1.87;1.30;;;17.00;68.20;;;;;;4971756;28;20195;-67
2023/06/13 07:58:35;;;;;;;1.57;1.40;;;16.80;68.20;;;;;;4971319;28;20261;-67
2023/06/13 08:01:03;;;;;;;3.40;1.70;;;16.80;68.30;;;;;;4968913;28;20240;-66
2023/06/13 08:03:30;;;;;;;1.90;1.50;;;16.80;68.40;;;;;;4972776;28;20282;-67
2023/06/13 08:05:58;;;;;;;4.20;1.60;;;16.80;68.40;;;;;;4971825;28;20676;-67
2023/06/13 08:08:25;;;;;;;2.30;1.30;;;16.80;68.30;;;;;;4969736;28;20726;-67
2023/06/13 08:10:53;;;;;;;2.53;1.50;;;16.80;68.20;;;;;;4972066;28;20656;-67
2023/06/13 08:13:20;;;;;;;1.57;1.47;;;16.80;68.30;;;;;;4970432;28;20689;-68
2023/06/13 08:15:48;;;;;;;2.40;1.57;;;16.80;68.20;;;;;;4972421;28;20658;-71
2023/06/13 08:18:16;;;;;;;2.53;1.30;;;16.80;68.40;;;;;;4972634;28;20193;-67
2023/06/13 08:20:44;;;;;;;3.43;1.40;;;16.80;68.50;;;;;;4971708;28;20190;-69
2023/06/13 08:23:12;;;;;;;5.63;2.03;;;16.70;68.70;;;;;;4972373;28;20545;-70
2023/06/13 08:25:39;;;;;;;3.73;1.97;;;16.60;68.90;;;;;;4972073;28;20660;-68
2023/06/13 08:28:07;;;;;;;4.10;2.43;;;16.60;69.00;;;;;;4973209;28;21012;-68
2023/06/13 08:30:35;;;;;;;4.43;2.10;;;16.50;69.20;;;;;;4974313;28;20188;-71
2023/06/13 08:33:02;;;;;;;4.00;2.03;;;16.50;69.40;;;;;;4976174;28;20285;-68
2023/06/13 08:35:30;;;;;;;2.93;1.90;;;16.40;69.60;;;;;;4975922;28;20193;-69
2023/06/13 08:37:58;;;;;;;2.10;1.40;;;16.50;70.00;;;;;;4974741;28;20653;-68
2023/06/13 08:40:25;;;;;;;2.33;1.47;;;16.40;69.80;;;;;;4973711;28;20265;-67
2023/06/13 08:42:52;;;;;;;6.53;1.70;;;16.40;70.00;;;;;;4973429;28;20292;-67
2023/06/13 08:45:20;;;;;;;1.60;1.50;;;16.40;70.10;;;;;;4972006;28;20181;-70
2023/06/13 08:47:48;;;;;;;3.60;1.60;;;16.40;70.30;;;;;;4973039;28;20675;-66
2023/06/13 08:50:18;;;;;;;5.03;2.20;;;16.40;70.20;;;;;;4972644;28;20186;-66
2023/06/13 08:52:49;;;;;;;3.70;2.40;;;16.50;69.90;;;;;;4974755;28;20240;-67
2023/06/13 08:55:20;;;;;;;6.60;2.70;;;16.50;68.80;;;;;;4974980;28;20265;-66
2023/06/13 08:57:52;;;;;;;2.93;2.23;;;16.50;67.20;;;;;;4977392;28;20648;-66
2023/06/13 09:00:22;;;;;;;4.97;2.30;;;16.50;65.50;;;;;;4974983;28;20591;-67
2023/06/13 09:02:50;;;;;;;3.83;1.90;;;16.50;65.60;;;;;;4972458;28;20214;-66
2023/06/13 09:05:18;;;;;;;3.40;2.73;;;16.40;63.70;;;;;;4975236;28;20190;-66
2023/06/13 09:07:50;;;;;;;6.33;4.37;;;16.30;63.10;;;;;;4972577;28;20288;-67
2023/06/13 09:10:18;;;;;;;4.30;2.93;;;16.30;61.10;;;;;;4974646;28;20186;-66
2023/06/13 09:12:49;;;;;;;3.60;1.90;;;16.20;60.80;;;;;;4975566;28;20217;-66
2023/06/13 09:15:17;;;;;;;3.83;1.60;;;16.20;59.90;;;;;;4972663;28;20193;-67
2023/06/13 09:17:45;;;;;;;2.17;1.33;;;16.10;59.90;;;;;;4975433;28;20221;-66
2023/06/13 09:20:12;;;;;;;4.87;1.63;;;16.00;60.30;;;;;;4974318;28;20677;-66
2023/06/13 09:22:40;;;;;;;3.20;1.70;;;15.90;60.30;;;;;;4970478;28;20555;-67
2023/06/13 09:25:09;;;;;;;4.70;2.00;;;15.90;60.80;;;;;;4970852;28;20198;-66
2023/06/13 09:27:37;;;;;;;2.40;1.43;;;15.80;61.00;;;;;;4974233;28;20564;-66
2023/06/13 09:30:05;;;;;;;2.93;2.00;;;15.80;61.40;;;;;;4970092;28;20186;-67
2023/06/13 09:32:32;;;;;;;4.10;1.70;;;15.80;62.00;;;;;;4970420;28;20187;-66
2023/06/13 09:35:02;;;;;;;4.60;1.80;;;15.70;62.50;;;;;;4973445;28;20251;-66
2023/06/13 09:40:08;;;;;;;3.03;1.80;;;15.60;63.10;;;;;;5686602;23;20638;-65
2023/06/13 09:42:36;;;;;;;1.90;1.30;;;15.50;63.50;;;;;;5010471;28;20185;-66
2023/06/13 09:45:08;;;;;;;5.60;1.97;;;15.40;63.90;;;;;;5008525;28;20538;-67
2023/06/13 09:47:36;;;;;;;4.80;2.10;;;15.40;64.20;;;;;;5010346;28;20213;-65
2023/06/13 09:50:03;;;;;;;3.40;2.00;;;15.40;64.50;;;;;;5007426;28;20190;-66
2023/06/13 09:52:31;;;;;;;2.53;1.77;;;15.40;64.30;;;;;;5002623;28;20181;-66
2023/06/13 09:54:58;;;;;;;7.77;1.83;;;15.40;64.80;;;;;;5008088;28;20193;-65
2023/06/13 09:57:26;;;;;;;3.57;1.70;;;15.40;65.20;;;;;;5008905;28;20185;-66
2023/06/13 09:59:53;;;;;;;4.43;2.00;;;15.40;65.20;;;;;;5003899;28;20196;-66
2023/06/13 10:02:21;;;;;;;2.60;1.87;;;15.40;64.70;;;;;;5005532;28;20200;-66
2023/06/13 10:04:54;;;;;;;4.63;2.23;;;15.40;64.40;;;;;;5008065;28;20255;-66
2023/06/13 10:07:22;;;;;;;4.87;2.30;;;15.40;64.70;;;;;;5005128;28;20554;-66
2023/06/13 10:09:49;;;;;;;5.17;2.60;;;15.40;65.00;;;;;;4989139;28;20288;-66
2023/06/13 10:12:23;;;;;;;4.33;2.73;;;15.50;66.10;;;;;;5009790;28;20210;-66
2023/06/13 10:15:00;;;;;;;4.33;2.30;;;15.40;66.80;;;;;;5007050;28;20197;-68
2023/06/13 10:17:33;;;;;;;6.07;2.70;;;15.40;67.10;;;;;;5004672;28;20193;-66
2023/06/13 10:20:10;;;;;;;3.13;2.07;;;15.40;67.10;;;;;;5005011;28;20209;-67
2023/06/13 10:22:40;;;;;;;2.97;2.13;;;15.30;66.50;;;;;;5010282;28;20188;-68
2023/06/13 10:25:09;;;;;;;6.27;2.23;;;15.30;66.90;;;;;;5003880;28;20194;-67
2023/06/13 10:27:40;;;;;;;3.77;2.27;;;15.20;67.20;;;;;;5007052;28;20697;-67
2023/06/13 10:30:31;;;;;;;1.80;1.60;;;15.20;67.80;;;;;;4999608;28;20528;-67
2023/06/13 10:33:02;;;;;;;5.07;2.23;;;15.10;67.90;;;;;;4991300;28;21462;-68
2023/06/13 10:35:48;;;;;;;3.43;2.23;;;15.00;68.80;;;;;;5006812;28;20224;-68
2023/06/13 10:38:38;;;;;;;2.20;1.70;;;15.00;69.30;;;;;;5005701;28;20181;-67
2023/06/13 10:41:35;;;;;;;2.60;1.70;;;15.00;70.30;;;;;;5006904;28;20244;-67
2023/06/13 10:44:51;;;;;;;4.47;2.30;;;15.00;70.50;;;;;;5008464;28;20248;-67
2023/06/13 10:47:19;;;;;;;2.40;1.87;;;15.00;71.10;;;;;;4989831;28;20773;-68
2023/06/13 10:49:49;;;;;;;5.43;1.90;;;14.90;71.50;;;;;;5006445;28;20201;-67
2023/06/13 10:52:19;;;;;;;2.90;2.10;;;14.80;71.80;;;;;;5005628;28;20189;-67
2023/06/13 10:54:54;;;;;;;2.30;1.90;;;14.80;72.30;;;;;;5006818;28;20604;-68
2023/06/13 10:57:22;;;;;;;3.13;2.13;;;14.80;72.30;;;;;;5007740;28;20653;-67
2023/06/13 10:59:51;;;;;;;8.00;2.13;;;14.80;72.50;;;;;;5003846;28;20190;-66
2023/06/13 11:02:19;;;;;;;2.70;2.03;;;14.70;72.80;;;;;;5004708;28;20748;-69
2023/06/13 11:04:56;;;;;;;2.97;2.00;;;14.70;73.00;;;;;;5002037;28;20188;-69
2023/06/13 11:07:25;;;;;;;5.07;2.03;;;14.70;73.00;;;;;;5004690;28;20181;-70
2023/06/13 11:10:16;;;;;;;2.43;1.83;;;14.70;72.90;;;;;;5006628;28;20248;-68
2023/06/13 11:12:44;;;;;;;5.17;2.17;;;14.60;73.40;;;;;;5008583;28;20232;-65
2023/06/13 11:15:27;;;;;;;1.83;1.67;;;14.60;73.70;;;;;;5001035;28;20193;-68
2023/06/13 11:18:10;;;;;;;2.23;1.90;;;14.60;73.90;;;;;;5003644;28;20182;-67
2023/06/13 11:20:53;;;;;;;1.97;1.67;;;14.50;74.30;;;;;;4998627;28;20620;-67
2023/06/13 11:23:53;;;;;;;3.63;2.13;;;14.50;74.40;;;;;;4997423;28;20186;-66
2023/06/13 11:26:21;;;;;;;4.73;1.80;;;14.30;74.70;;;;;;4998353;28;20214;-68
2023/06/13 11:28:53;;;;;;;3.37;2.00;;;14.30;75.00;;;;;;4999124;28;20575;-68
2023/06/13 11:31:20;;;;;;;7.10;2.40;;;14.20;75.30;;;;;;5003490;28;20185;-67
2023/06/13 11:33:51;;;;;;;5.10;2.33;;;14.20;75.50;;;;;;5004630;28;20279;-66
2023/06/13 11:36:19;;;;;;;3.03;2.30;;;14.10;75.80;;;;;;4997444;28;20182;-67
2023/06/13 11:39:03;;;;;;;7.87;2.87;;;14.10;76.00;;;;;;5000287;28;20190;-66
2023/06/13 11:41:32;;;;;;;3.47;2.83;;;14.00;76.20;;;;;;5001467;28;20229;-66
2023/06/13 11:43:59;;;;;;;4.93;2.30;;;14.00;76.40;;;;;;5006337;28;20201;-66
2023/06/13 11:46:27;;;;;;;2.00;1.80;;;13.90;76.60;;;;;;5005881;28;20214;-67
2023/06/13 11:48:58;;;;;;;3.37;2.30;;;13.90;76.50;;;;;;5004100;28;20185;-67
2023/06/13 11:51:30;;;;;;;4.53;1.87;;;13.80;76.40;;;;;;5004603;28;20177;-66
2023/06/13 11:54:01;;;;;;;2.07;1.70;;;13.80;76.10;;;;;;5004351;28;20223;-66
2023/06/13 11:56:29;;;;;;;4.77;2.10;;;13.80;76.00;;;;;;5004821;28;20227;-67
2023/06/13 11:58:57;;;;;;;2.83;2.07;;;13.80;76.10;;;;;;5006283;28;20721;-70
2023/06/13 12:01:26;;;;;;;4.00;1.80;;;13.80;76.10;;;;;;5002488;28;20184;-67
2023/06/13 12:04:00;;;;;;;2.27;2.07;;;13.80;76.20;;;;;;4999523;28;20196;-68
2023/06/13 12:06:28;;;;;;;3.63;2.97;;;13.80;76.50;;;;;;5003150;28;20186;-67
2023/06/13 12:08:55;;;;;;;3.57;2.20;;;13.70;76.60;;;;;;5005831;28;20190;-67
2023/06/13 12:11:23;;;;;;;2.23;2.00;;;13.70;76.80;;;;;;5001777;28;20200;-66
2023/06/13 12:13:54;;;;;;;2.43;1.97;;;13.60;76.90;;;;;;5005019;28;20213;-67
2023/06/13 12:16:33;;;;;;;2.53;1.77;;;13.50;76.90;;;;;;5002980;28;20189;-68
2023/06/13 12:19:02;;;;;;;3.27;1.70;;;13.50;77.10;;;;;;5004331;28;20181;-69
2023/06/13 12:21:30;;;;;;;3.90;1.87;;;13.50;77.20;;;;;;5006574;28;20233;-69
2023/06/13 12:24:02;;;;;;;2.10;1.67;;;13.40;77.10;;;;;;5006576;28;20277;-66
2023/06/13 12:26:33;;;;;;;3.50;2.10;;;13.30;77.50;;;;;;5001088;28;20681;-67
2023/06/13 12:29:04;;;;;;;3.30;1.87;;;13.30;77.70;;;;;;4998740;28;20200;-68
2023/06/13 12:31:38;;;;;;;3.10;2.00;;;13.20;77.80;;;;;;5005225;28;20638;-66
2023/06/13 12:34:09;;;;;;;1.57;1.43;;;13.20;77.80;;;;;;5002237;28;20229;-70
2023/06/13 12:36:46;;;;;;;2.77;1.50;;;13.10;77.70;;;;;;5001808;28;20197;-68
2023/06/13 12:39:16;;;;;;;2.23;1.60;;;13.00;77.70;;;;;;5005138;28;20579;-66
2023/06/13 12:41:51;;;;;;;2.10;1.40;;;13.00;77.80;;;;;;5005846;28;20186;-68
2023/06/13 12:44:22;;;;;;;1.43;1.23;;;13.00;77.70;;;;;;5003719;28;20512;-67
2023/06/13 12:46:51;;;;;;;5.13;1.70;;;13.00;77.70;;;;;;5005181;28;20186;-70
2023/06/13 12:49:21;;;;;;;2.30;1.60;;;13.00;77.60;;;;;;5005443;28;20185;-69
2023/06/13 12:51:52;;;;;;;1.50;1.27;;;12.90;77.80;;;;;;5005783;28;20182;-67
2023/06/13 12:54:26;;;;;;;2.80;1.20;;;12.90;77.90;;;;;;5006407;28;20216;-66
2023/06/13 12:56:59;;;;;;;1.87;1.40;;;12.90;78.00;;;;;;5007975;28;20516;-66
2023/06/13 12:59:30;;;;;;;1.47;1.30;;;12.90;78.10;;;;;;5007639;28;20193;-67
2023/06/13 13:01:59;;;;;;;1.40;1.30;;;12.90;78.30;;;;;;5001923;28;20193;-67